West Yellowstone, MT

6:38 AM MDT on September 22, 2014 (GMT -0600)
Yellowstone | Change Station
CLOSE
Current Station
Airport
Location: West Yellowstone,
Elevation: 6644 ft
Nearby Weather Stations

Elev 6644 ft 44.69 °N, 111.12 °W | Updated 28 minutes ago

Overcast
Overcast
50 °F
Feels Like 50 °F
N
0
Wind Variable Wind from North

Today
High -- | Low -- °F
--% Chance of Precip.
Yesterday
High -- | Low -- °F
Precip. -- in
7:11 AM 7:21 PM
Waning Crescent, 3% visible
Pressure 30.22 in
Visibility 10.0 miles
Clouds Few 300 ft
Few 1600 ft
Overcast 2500 ft
Dew Point 50 °F
Humidity 100%
Rainfall 0.10 in
Snow Depth 0 in , 0 in , 0 in
UV 0 out of 12
Pollen 5.60 out of 12
Air Quality Not available.
Flu Activity Not available.
METAR KWYS 221210Z AUTO 00000KT 10SM FEW003 FEW016 OVC025 10/10 A3022 RMK AO2

More Conditions Fewer Conditions

Pressure 30.22 in
Visibility 10.0 miles
Clouds Few 300 ft
Few 1600 ft
Overcast 2500 ft
Dew Point 50 °F
Humidity 100%
Rainfall 0.10 in
Snow Depth 0 in , 0 in , 0 in
UV 0 out of 12
Pollen 5.60 out of 12
Air Quality Not available.
Flu Activity Not available.
METAR KWYS 221210Z AUTO 00000KT 10SM FEW003 FEW016 OVC025 10/10 A3022 RMK AO2

More Conditions Fewer Conditions

10-Day Weather Forecast

Almanac

Astronomy

Sep. 22, 2014 Rise Set
Actual Time 7:11 AM MDT 7:21 PM MDT
Civil Twilight 6:42 AM MDT 7:50 PM MDT
Nautical Twilight 6:08 AM MDT 8:25 PM MDT
Astronomical Twilight 5:33 AM MDT 9:00 PM MDT
Moon 5:41 AM MDT 6:32 PM MDT
Length of Visible Light 13h 08m
Length of Day
12h 10m
Tomorrow will be 3m 4s shorter.
Waning Crescent, 3% of the Moon is Illuminated
Today
Waning Crescent
Sep 24
New
Oct 1
First Quarter
Oct 8
Full
Oct 15
Last Quarter

Today's Extremes

State Highs State Lows

Community

WunderPhotos

Upload Photos

1,755,420 photos uploaded!

Nearby

Snow Depth

Station Depth Elevation
Nevada Ridge 0 in 7020 ft
Grave Creek 0 in 4300 ft
Stahl Peak 0 in 6030 ft
Wood Creek 1 in 5960 ft
West Yellowstone 0 in 6700 ft

Earthquake Activity

City Distance Mag. Time & Date
No recent earthquake activity has been reported nearby.
Minimum magnitude displayed is 2.5.

Coastal Water Temperatures

Place Temperature
No Stations Reporting

Nearby Weather Stations